Time;durP1;ratioP1;P1;durP2;ratioP2;P2;SDS_P1;SDS_P2;PMS_P1;PMS_P2;Temp;Humidity;BMP_temperature;BMP_pressure;BME280_temperature;BME280_humidity;BME280_pressure;Samples;Min_cycle;Max_cycle;Signal;HPM_P1;HPM_P2
2022/06/27 00:00:46;;;;;;;4.80;4.10;;;;;;;23.81;47.91;100660.20;106346;1270;23230;-74
2022/06/27 00:03:13;;;;;;;7.60;4.60;;;;;;;23.75;47.94;100664.91;106206;1270;23939;-75
2022/06/27 00:05:39;;;;;;;5.60;4.30;;;;;;;23.70;48.20;100664.13;105791;1277;25276;-76
2022/06/27 00:08:06;;;;;;;5.80;4.90;;;;;;;23.66;48.32;100668.13;105810;1277;23975;-78
2022/06/27 00:10:33;;;;;;;5.40;4.40;;;;;;;23.62;48.50;100664.60;105728;1276;22823;-79
2022/06/27 00:12:59;;;;;;;7.00;4.50;;;;;;;23.61;48.51;100662.84;105730;1276;22586;-77
2022/06/27 00:15:25;;;;;;;4.40;4.00;;;;;;;23.60;48.80;100663.06;105688;1277;23938;-75
2022/06/27 00:17:52;;;;;;;6.00;4.20;;;;;;;23.57;48.87;100662.87;105747;1276;25641;-77
2022/06/27 00:20:19;;;;;;;8.10;4.80;;;;;;;23.54;48.95;100662.00;105917;1277;26553;-74
2022/06/27 00:22:45;;;;;;;5.40;4.30;;;;;;;23.52;49.11;100662.13;106200;1277;22564;-73
2022/06/27 00:25:12;;;;;;;6.10;4.80;;;;;;;23.47;49.11;100663.51;105835;1277;26561;-79
2022/06/27 00:27:38;;;;;;;5.60;4.70;;;;;;;23.40;49.16;100663.17;105713;1278;23421;-75
2022/06/27 00:30:05;;;;;;;9.50;4.60;;;;;;;23.38;49.26;100666.49;106065;1271;25602;-75
2022/06/27 00:32:32;;;;;;;5.80;4.50;;;;;;;23.36;49.37;100666.42;106155;1270;25460;-75
2022/06/27 00:34:58;;;;;;;7.00;4.80;;;;;;;23.34;49.37;100666.92;106010;1272;22564;-81
2022/06/27 00:37:24;;;;;;;8.80;4.60;;;;;;;23.30;49.58;100665.33;106367;1270;24248;-75
2022/06/27 00:39:50;;;;;;;7.60;4.90;;;;;;;23.27;49.60;100665.89;106249;1270;22672;-77
2022/06/27 00:42:17;;;;;;;5.80;4.90;;;;;;;23.22;49.64;100666.15;106158;1270;22715;-75
2022/06/27 00:44:43;;;;;;;8.80;5.70;;;;;;;23.19;49.79;100666.67;106392;1270;23399;-74
2022/06/27 00:47:12;;;;;;;6.60;4.90;;;;;;;23.17;49.67;100668.98;106151;1270;24270;-74
2022/06/27 00:49:39;;;;;;;6.50;5.00;;;;;;;23.14;50.00;100668.05;106131;1270;22707;-75
2022/06/27 00:52:08;;;;;;;5.20;4.70;;;;;;;23.11;49.95;100666.42;106179;1272;24996;-77
2022/06/27 00:54:36;;;;;;;7.80;4.80;;;;;;;23.09;50.03;100668.55;105995;1271;24339;-72
2022/06/27 00:57:03;;;;;;;7.10;4.60;;;;;;;23.06;50.13;100669.93;106194;1270;22550;-70
2022/06/27 00:59:30;;;;;;;5.10;4.60;;;;;;;23.05;50.39;100669.48;106069;1270;23935;-72
2022/06/27 01:01:56;;;;;;;5.90;4.70;;;;;;;23.03;50.35;100669.91;106115;1270;23965;-74
2022/06/27 01:04:23;;;;;;;5.50;4.80;;;;;;;22.99;50.34;100671.73;106098;1270;22534;-76
2022/06/27 01:06:51;;;;;;;5.50;4.70;;;;;;;22.93;50.56;100669.77;106212;1270;25367;-74
2022/06/27 01:09:19;;;;;;;7.10;4.90;;;;;;;22.89;50.62;100674.65;106147;1271;22551;-73
2022/06/27 01:11:46;;;;;;;4.40;4.00;;;;;;;22.85;50.65;100673.83;106061;1271;22589;-73
2022/06/27 01:14:15;;;;;;;5.70;4.60;;;;;;;22.79;50.98;100670.74;106396;1270;24490;-76
2022/06/27 01:16:42;;;;;;;4.70;4.30;;;;;;;22.69;50.85;100669.66;107078;1270;22743;-74
2022/06/27 01:19:12;;;;;;;5.20;4.70;;;;;;;22.66;51.20;100668.95;107327;1270;23983;-71
2022/06/27 01:21:54;;;;;;;8.40;5.10;;;;;;;22.66;51.33;100663.02;106175;1270;25426;-80
2022/06/27 01:24:25;;;;;;;4.90;4.40;;;;;;;22.67;51.25;100668.69;105964;1270;22546;-76
2022/06/27 01:26:51;;;;;;;4.80;4.30;;;;;;;22.65;51.38;100668.45;105980;1270;22822;-73
2022/06/27 01:29:19;;;;;;;5.20;4.70;;;;;;;22.59;51.28;100662.69;106054;1270;23970;-73
2022/06/27 01:31:47;;;;;;;9.70;6.00;;;;;;;22.54;51.39;100666.15;106143;1270;25364;-75
2022/06/27 01:34:13;;;;;;;6.10;4.90;;;;;;;22.50;51.66;100667.29;106154;1273;22964;-77
2022/06/27 01:36:42;;;;;;;5.20;4.20;;;;;;;22.48;51.52;100664.16;106093;1270;22703;-74
2022/06/27 01:39:17;;;;;;;7.70;4.80;;;;;;;22.50;51.69;100665.29;105991;1270;22544;-77
2022/06/27 01:41:47;;;;;;;5.40;4.80;;;;;;;22.50;51.85;100661.50;106180;1270;23192;-80
2022/06/27 01:44:15;;;;;;;5.80;5.10;;;;;;;22.51;51.78;100663.23;106155;1270;25335;-80
2022/06/27 01:46:49;;;;;;;8.00;5.10;;;;;;;22.51;51.83;100662.73;105991;1270;23081;-79
2022/06/27 01:49:17;;;;;;;7.20;4.80;;;;;;;22.50;51.82;100653.61;106090;1270;22699;-80
2022/06/27 01:51:46;;;;;;;5.00;4.60;;;;;;;22.50;51.91;100654.71;106147;1269;24693;-79
2022/06/27 01:54:15;;;;;;;5.90;4.80;;;;;;;22.49;52.03;100651.88;106037;1270;24417;-79
2022/06/27 01:56:42;;;;;;;5.30;4.60;;;;;;;22.48;52.02;100652.15;105995;1271;22817;-79
2022/06/27 01:59:09;;;;;;;7.00;4.70;;;;;;;22.46;52.06;100654.17;106122;1271;24335;-71
2022/06/27 02:01:35;;;;;;;4.80;4.40;;;;;;;22.44;52.24;100655.77;105987;1270;22550;-74
2022/06/27 02:04:02;;;;;;;6.90;4.70;;;;;;;22.42;52.20;100655.69;106429;1270;25307;-74
2022/06/27 02:06:30;;;;;;;5.60;4.60;;;;;;;22.40;52.28;100655.41;106194;1270;25437;-73
2022/06/27 02:08:58;;;;;;;5.70;5.00;;;;;;;22.38;52.30;100658.92;106158;1270;22668;-79
2022/06/27 02:11:26;;;;;;;5.30;4.80;;;;;;;22.37;52.37;100658.11;106215;1271;25259;-78
2022/06/27 02:13:54;;;;;;;5.30;4.80;;;;;;;22.36;52.62;100660.09;106335;1270;22714;-75
2022/06/27 02:16:21;;;;;;;5.30;4.40;;;;;;;22.35;52.57;100659.80;106425;1270;22562;-76
2022/06/27 02:18:48;;;;;;;6.50;4.60;;;;;;;22.35;52.68;100662.50;106293;1272;22587;-77
2022/06/27 02:21:19;;;;;;;5.40;4.80;;;;;;;22.34;52.74;100659.71;106427;1270;22693;-78
2022/06/27 02:23:46;;;;;;;6.50;4.50;;;;;;;22.33;52.59;100661.02;106358;1270;22829;-77
2022/06/27 02:26:14;;;;;;;6.50;5.00;;;;;;;22.30;52.74;100656.89;106254;1270;22498;-80
2022/06/27 02:28:42;;;;;;;5.10;4.40;;;;;;;22.27;52.81;100661.14;106258;1270;25526;-76
2022/06/27 02:31:11;;;;;;;8.20;4.50;;;;;;;22.25;52.95;100666.09;106110;1270;22626;-79
2022/06/27 02:33:43;;;;;;;5.20;4.40;;;;;;;22.21;52.90;100665.25;106238;1270;22626;-77
2022/06/27 02:36:15;;;;;;;6.40;4.80;;;;;;;22.20;52.98;100667.80;106172;1270;22816;-74
2022/06/27 02:38:44;;;;;;;6.60;4.50;;;;;;;22.18;53.02;100664.14;106383;1270;24393;-80
2022/06/27 02:41:15;;;;;;;5.20;4.70;;;;;;;22.16;52.99;100661.55;106194;1273;24264;-80
2022/06/27 02:43:46;;;;;;;4.90;4.20;;;;;;;22.15;53.05;100668.61;106460;1270;22579;-78
2022/06/27 02:46:13;;;;;;;5.80;5.10;;;;;;;22.10;53.23;100669.74;106304;1270;22563;-79
2022/06/27 02:48:39;;;;;;;5.20;4.40;;;;;;;22.10;53.25;100671.76;106084;1271;25190;-77
2022/06/27 02:51:13;;;;;;;6.10;4.40;;;;;;;22.09;53.27;100669.09;106525;1270;22567;-72
2022/06/27 02:54:00;;;;;;;5.30;4.60;;;;;;;22.08;53.33;100672.76;106210;1270;25308;-75
2022/06/27 02:56:49;;;;;;;5.10;4.10;;;;;;;22.06;53.22;100675.52;106208;1270;23936;-78
2022/06/27 02:59:23;;;;;;;7.00;4.20;;;;;;;22.06;53.44;100676.95;106118;1270;22537;-75
2022/06/27 03:01:51;;;;;;;5.10;4.60;;;;;;;22.06;53.41;100675.52;106404;1270;22551;-75
2022/06/27 03:04:21;;;;;;;6.40;4.70;;;;;;;22.03;53.38;100675.15;106298;1271;25385;-79
2022/06/27 03:06:49;;;;;;;4.80;4.30;;;;;;;22.02;53.45;100679.14;106199;1270;25412;-79
2022/06/27 03:09:17;;;;;;;5.20;4.30;;;;;;;21.97;53.56;100679.80;106188;1270;25481;-73
2022/06/27 03:11:47;;;;;;;8.20;4.40;;;;;;;21.93;53.66;100676.20;106248;1270;24312;-73
2022/06/27 03:14:14;;;;;;;4.70;4.20;;;;;;;21.96;53.70;100681.45;106546;1270;25393;-74
2022/06/27 03:16:41;;;;;;;5.00;4.60;;;;;;;21.99;53.61;100683.98;106349;1270;25230;-75
2022/06/27 03:19:07;;;;;;;6.10;4.00;;;;;;;22.01;53.63;100684.04;106121;1270;24255;-76
2022/06/27 03:21:44;;;;;;;6.90;4.80;;;;;;;22.01;53.65;100684.77;106335;1270;24435;-77
2022/06/27 03:24:10;;;;;;;5.90;4.20;;;;;;;22.04;53.73;100683.73;106121;1270;25377;-74
2022/06/27 03:26:40;;;;;;;6.50;4.50;;;;;;;22.04;53.67;100686.73;106475;1270;22691;-78
2022/06/27 03:29:07;;;;;;;6.30;4.50;;;;;;;22.00;53.63;100680.86;106179;1270;22537;-75
2022/06/27 03:31:35;;;;;;;9.70;4.50;;;;;;;22.01;53.71;100684.58;106454;1270;22700;-77
2022/06/27 03:34:03;;;;;;;8.00;4.00;;;;;;;22.01;53.78;100684.36;106415;1270;22608;-73
2022/06/27 03:36:56;;;;;;;5.40;5.00;;;;;;;22.00;53.97;100688.55;106338;1270;22616;-73
2022/06/27 03:39:23;;;;;;;7.30;5.00;;;;;;;21.97;53.67;100685.10;107295;1270;24314;-74
2022/06/27 03:41:51;;;;;;;6.00;4.50;;;;;;;22.05;53.97;100693.14;107182;1270;25319;-74
2022/06/27 03:44:18;;;;;;;8.10;4.40;;;;;;;22.07;53.75;100692.34;106708;1270;22557;-78
2022/06/27 03:46:46;;;;;;;6.40;4.60;;;;;;;22.06;53.72;100692.56;106462;1270;22557;-76
2022/06/27 03:52:07;;;;;;;5.40;4.30;;;;;;;22.13;53.91;100687.70;106535;1270;25229;-74
2022/06/27 03:54:35;;;;;;;5.40;4.40;;;;;;;22.18;53.65;100691.92;106568;1270;25268;-77
2022/06/27 03:57:01;;;;;;;7.50;4.40;;;;;;;22.20;53.78;100690.23;106261;1270;24253;-75
2022/06/27 03:59:27;;;;;;;7.40;4.30;;;;;;;22.25;53.75;100695.16;106079;1270;25253;-73
2022/06/27 04:01:53;;;;;;;4.50;3.90;;;;;;;22.24;53.68;100692.15;106059;1270;25364;-80
2022/06/27 04:04:21;;;;;;;6.40;4.20;;;;;;;22.23;53.72;100696.50;106178;1270;22671;-75
2022/06/27 04:06:49;;;;;;;5.00;3.70;;;;;;;22.22;53.73;100697.12;106009;1270;22547;-75
2022/06/27 04:09:15;;;;;;;4.30;3.90;;;;;;;22.21;53.84;100695.02;106330;1270;22688;-73
2022/06/27 04:11:42;;;;;;;8.10;4.60;;;;;;;22.23;53.71;100696.54;106109;1270;22532;-76
2022/06/27 04:14:11;;;;;;;5.70;4.00;;;;;;;22.23;53.82;100692.58;105562;1276;22546;-75
2022/06/27 04:16:41;;;;;;;4.90;4.10;;;;;;;22.23;53.82;100690.96;105877;1277;25541;-74
2022/06/27 04:19:39;;;;;;;4.80;4.30;;;;;;;22.30;53.65;100692.92;105914;1276;23691;-76
2022/06/27 04:22:08;;;;;;;6.30;4.30;;;;;;;22.31;53.59;100694.65;105680;1276;335480;-76
2022/06/27 04:24:46;;;;;;;5.30;4.20;;;;;;;22.32;53.58;100698.36;105905;1276;22614;-74
2022/06/27 04:27:19;;;;;;;8.20;4.50;;;;;;;22.30;53.66;100693.64;105646;1279;22566;-78
2022/06/27 04:29:48;;;;;;;5.00;4.50;;;;;;;22.33;53.64;100699.92;105531;1280;23206;-77
2022/06/27 04:32:18;;;;;;;7.80;5.10;;;;;;;22.34;53.80;100695.92;105928;1274;22559;-78
2022/06/27 04:34:45;;;;;;;4.60;4.20;;;;;;;22.39;53.81;100696.94;105877;1274;22544;-79
2022/06/27 04:37:11;;;;;;;5.50;4.30;;;;;;;22.41;53.96;100696.63;105951;1274;24816;-76
2022/06/27 04:39:58;;;;;;;8.50;5.50;;;;;;;22.46;54.01;100698.16;106067;1274;22535;-77
2022/06/27 04:42:30;;;;;;;5.90;4.40;;;;;;;22.46;53.83;100692.05;106114;1274;23402;-77
2022/06/27 04:44:57;;;;;;;5.20;4.40;;;;;;;22.54;53.67;100697.42;106232;1271;22544;-81
2022/06/27 04:47:23;;;;;;;10.40;4.50;;;;;;;22.56;53.64;100699.04;106167;1273;22702;-74
2022/06/27 04:50:08;;;;;;;7.10;3.90;;;;;;;22.60;53.55;100701.21;106119;1273;25048;-75
2022/06/27 04:52:34;;;;;;;4.80;4.30;;;;;;;22.63;53.80;100706.61;105762;1274;23934;-73
2022/06/27 04:55:00;;;;;;;4.90;4.00;;;;;;;22.65;53.68;100707.60;105998;1274;22674;-75
2022/06/27 04:57:27;;;;;;;8.20;4.00;;;;;;;22.66;53.62;100704.13;106177;1274;25258;-74
2022/06/27 04:59:54;;;;;;;10.00;3.90;;;;;;;22.70;53.45;100713.42;105946;1274;25380;-73
2022/06/27 05:02:40;;;;;;;5.80;3.70;;;;;;;22.74;53.03;100710.68;106022;1274;25293;-74
2022/06/27 05:05:08;;;;;;;5.40;3.60;;;;;;;22.76;52.98;100709.31;106137;1274;22609;-70
2022/06/27 05:07:34;;;;;;;7.30;4.00;;;;;;;22.80;52.86;100713.05;106155;1274;24257;-75
2022/06/27 05:10:01;;;;;;;5.60;3.90;;;;;;;22.84;52.72;100709.60;106011;1274;24240;-72
2022/06/27 05:12:28;;;;;;;5.20;3.70;;;;;;;22.89;52.74;100711.67;106004;1274;25243;-68
2022/06/27 05:14:55;;;;;;;5.90;3.80;;;;;;;22.91;52.54;100711.70;106108;1274;24327;-71
2022/06/27 05:17:24;;;;;;;7.40;4.00;;;;;;;22.98;52.38;100717.08;106295;1271;25373;-75
2022/06/27 05:19:50;;;;;;;5.50;3.90;;;;;;;23.02;52.30;100721.16;106395;1270;25263;-74
2022/06/27 05:22:16;;;;;;;5.70;3.60;;;;;;;23.08;52.10;100723.54;106131;1270;25383;-73
2022/06/27 05:24:43;;;;;;;3.90;3.40;;;;;;;23.12;51.80;100724.04;106003;1270;25194;-74
2022/06/27 05:27:17;;;;;;;9.60;3.60;;;;;;;23.16;51.79;100725.60;106103;1270;22653;-74
2022/06/27 05:29:44;;;;;;;7.10;3.50;;;;;;;23.22;51.90;100729.56;106144;1270;25375;-74
2022/06/27 05:32:11;;;;;;;5.20;4.10;;;;;;;23.28;51.82;100732.84;106171;1270;22771;-74
2022/06/27 05:34:38;;;;;;;9.20;4.30;;;;;;;23.33;51.81;100730.90;106115;1270;22579;-76
2022/06/27 05:37:05;;;;;;;4.00;3.60;;;;;;;23.39;51.61;100737.23;106211;1270;26531;-74
2022/06/27 05:39:33;;;;;;;6.20;3.90;;;;;;;23.44;51.57;100739.65;106176;1270;22532;-79
2022/06/27 05:42:01;;;;;;;9.60;4.20;;;;;;;23.50;51.36;100741.14;106256;1270;24208;-78
2022/06/27 05:44:31;;;;;;;6.70;3.40;;;;;;;23.56;51.19;100743.12;106284;1273;22507;-76
2022/06/27 05:46:58;;;;;;;4.20;3.80;;;;;;;23.63;51.12;100740.77;106205;1270;24268;-75
2022/06/27 05:49:24;;;;;;;7.60;3.80;;;;;;;23.69;51.30;100741.11;106253;1270;23950;-74
2022/06/27 05:51:57;;;;;;;8.20;3.30;;;;;;;23.74;51.12;100742.44;106363;1270;22513;-78
2022/06/27 05:54:24;;;;;;;9.10;3.70;;;;;;;23.80;50.92;100744.27;106428;1270;22627;-79
2022/06/27 05:56:50;;;;;;;7.90;3.50;;;;;;;23.86;50.86;100741.74;106324;1270;22578;-80
2022/06/27 05:59:17;;;;;;;4.90;3.00;;;;;;;23.92;50.50;100739.94;107194;1270;22751;-85
2022/06/27 06:01:45;;;;;;;5.10;3.30;;;;;;;23.98;50.47;100735.42;108829;1271;24121;-79
2022/06/27 06:04:13;;;;;;;5.30;3.70;;;;;;;24.07;50.36;100740.33;107705;1270;22594;-78
2022/06/27 06:06:43;;;;;;;5.20;3.50;;;;;;;24.13;50.13;100733.89;106510;1276;24252;-78
2022/06/27 06:09:11;;;;;;;3.70;3.20;;;;;;;24.21;50.00;100742.02;106100;1276;24271;-82
2022/06/27 06:11:38;;;;;;;10.60;3.60;;;;;;;24.27;49.89;100731.73;105891;1276;22719;-79
2022/06/27 06:14:04;;;;;;;4.90;3.40;;;;;;;24.31;49.62;100728.63;105911;1276;25953;-80
2022/06/27 06:16:32;;;;;;;6.00;3.80;;;;;;;24.40;49.57;100739.45;105809;1278;22559;-80
2022/06/27 06:18:59;;;;;;;5.00;3.60;;;;;;;24.46;49.65;100741.05;107075;1276;22572;-78
2022/06/27 06:21:26;;;;;;;4.60;3.10;;;;;;;24.51;49.44;100744.69;108035;1280;22597;-77
2022/06/27 06:23:55;;;;;;;4.50;4.10;;;;;;;24.56;49.68;100742.94;106856;1280;24458;-79
2022/06/27 06:26:23;;;;;;;4.40;3.40;;;;;;;24.62;49.62;100746.02;105176;1281;22540;-78
2022/06/27 06:28:51;;;;;;;6.00;4.20;;;;;;;24.69;49.50;100753.67;105498;1282;22582;-82
2022/06/27 06:31:24;;;;;;;7.60;3.80;;;;;;;24.75;49.74;100754.54;105551;1281;22592;-78
2022/06/27 06:33:56;;;;;;;6.60;3.50;;;;;;;24.81;49.67;100756.52;105676;1281;25390;-78
2022/06/27 06:36:23;;;;;;;10.60;3.30;;;;;;;24.87;49.02;100755.98;105825;1279;22884;-79
2022/06/27 06:38:51;;;;;;;11.30;3.50;;;;;;;24.92;48.81;100755.12;105586;1282;22559;-79
2022/06/27 06:41:18;;;;;;;6.10;3.20;;;;;;;24.98;48.68;100759.23;105760;1281;23936;-79
2022/06/27 06:43:48;;;;;;;5.80;2.90;;;;;;;25.04;48.27;100759.98;106216;1277;22544;-80
2022/06/27 06:46:38;;;;;;;5.80;2.90;;;;;;;25.10;48.04;100758.27;106362;1270;25380;-78
2022/06/27 06:49:10;;;;;;;4.00;2.70;;;;;;;25.15;47.71;100755.80;106255;1270;22655;-77
2022/06/27 06:51:39;;;;;;;5.30;3.20;;;;;;;25.21;47.69;100752.03;106064;1270;23250;-79
2022/06/27 06:54:07;;;;;;;3.20;2.90;;;;;;;25.27;47.38;100759.23;106282;1270;25586;-77
2022/06/27 06:56:34;;;;;;;4.20;2.60;;;;;;;25.33;47.52;100758.11;105839;1276;24330;-79
2022/06/27 06:59:03;;;;;;;7.30;3.70;;;;;;;25.39;47.31;100754.80;105759;1276;25436;-76
2022/06/27 07:01:35;;;;;;;2.60;2.40;;;;;;;25.47;46.92;100757.20;105270;1280;24245;-79
2022/06/27 07:04:03;;;;;;;5.90;2.80;;;;;;;25.49;46.66;100751.84;105536;1281;22783;-77
2022/06/27 07:06:30;;;;;;;5.60;2.90;;;;;;;25.59;46.74;100763.23;105692;1280;25287;-79
2022/06/27 07:08:59;;;;;;;5.00;2.90;;;;;;;25.66;46.76;100764.79;105635;1279;24626;-77
2022/06/27 07:11:28;;;;;;;3.70;2.80;;;;;;;25.71;46.60;100759.94;105787;1280;22817;-80
2022/06/27 07:13:57;;;;;;;3.10;2.80;;;;;;;25.75;46.27;100760.41;105608;1280;25393;-79
2022/06/27 07:16:26;;;;;;;3.90;2.60;;;;;;;25.83;46.10;100757.86;105956;1276;22535;-77
2022/06/27 07:18:57;;;;;;;5.40;2.90;;;;;;;25.89;45.73;100757.30;106053;1276;23960;-79
2022/06/27 07:21:26;;;;;;;4.00;2.80;;;;;;;25.94;45.66;100758.04;106211;1270;25252;-78
2022/06/27 07:23:53;;;;;;;2.60;2.40;;;;;;;26.01;45.55;100755.22;106019;1277;22550;-79
2022/06/27 07:26:23;;;;;;;2.70;2.50;;;;;;;26.08;45.35;100753.83;105926;1277;25425;-80
2022/06/27 07:28:51;;;;;;;3.90;2.70;;;;;;;26.16;45.38;100753.16;105841;1276;24734;-80
2022/06/27 07:31:18;;;;;;;2.90;2.60;;;;;;;26.21;45.20;100749.52;105960;1276;22996;-80
2022/06/27 07:33:49;;;;;;;3.00;2.50;;;;;;;26.28;44.98;100748.71;106125;1277;24399;-79
2022/06/27 07:36:15;;;;;;;3.80;2.40;;;;;;;26.34;44.80;100745.95;106557;1277;22871;-79
2022/06/27 07:38:44;;;;;;;3.30;2.40;;;;;;;26.42;44.66;100747.55;107259;1276;22678;-79
2022/06/27 07:41:13;;;;;;;4.40;2.70;;;;;;;26.51;44.99;100747.31;107395;1270;22593;-79
2022/06/27 07:43:40;;;;;;;3.40;2.70;;;;;;;26.62;44.61;100746.73;108533;1270;25264;-78
2022/06/27 07:46:07;;;;;;;3.30;2.50;;;;;;;26.72;44.02;100749.45;108433;1271;23100;-77
2022/06/27 07:48:33;;;;;;;11.20;2.70;;;;;;;26.79;43.73;100748.77;107539;1270;25331;-79
2022/06/27 07:51:00;;;;;;;5.10;3.70;;;;;;;26.85;43.76;100747.25;106866;1273;22794;-78
2022/06/27 07:53:27;;;;;;;4.60;2.90;;;;;;;26.91;43.67;100751.15;106853;1273;22589;-78
2022/06/27 07:56:03;;;;;;;4.50;2.40;;;;;;;26.96;43.48;100747.75;106412;1270;22650;-79
2022/06/27 07:58:35;;;;;;;3.90;2.70;;;;;;;27.00;43.34;100744.41;106171;1270;22534;-78
2022/06/27 08:01:08;;;;;;;7.10;2.70;;;;;;;27.05;43.63;100738.06;106285;1270;25385;-81
2022/06/27 08:03:47;;;;;;;6.30;2.80;;;;;;;27.13;43.56;100741.34;106232;1270;22541;-80
2022/06/27 08:06:23;;;;;;;5.40;2.70;;;;;;;27.19;43.60;100736.52;106115;1270;22619;-79
2022/06/27 08:08:54;;;;;;;3.80;2.70;;;;;;;27.27;43.45;100738.84;106108;1270;22562;-80
2022/06/27 08:11:23;;;;;;;3.00;2.30;;;;;;;27.37;43.34;100737.18;106259;1273;22875;-79
2022/06/27 08:13:52;;;;;;;4.00;2.60;;;;;;;27.49;43.70;100738.14;106522;1270;25384;-78
2022/06/27 08:16:21;;;;;;;3.20;2.50;;;;;;;27.60;43.47;100735.64;106317;1276;22639;-78
2022/06/27 08:18:50;;;;;;;6.20;2.70;;;;;;;27.68;43.36;100733.78;106201;1276;22580;-80
2022/06/27 08:21:21;;;;;;;3.40;2.60;;;;;;;27.74;43.25;100730.87;106818;1275;22743;-82
2022/06/27 08:23:49;;;;;;;5.20;2.70;;;;;;;27.75;42.98;100730.41;107765;1276;25262;-77
2022/06/27 08:26:17;;;;;;;3.80;2.50;;;;;;;27.79;42.91;100727.22;107314;1276;25306;-79
2022/06/27 08:28:47;;;;;;;3.40;2.40;;;;;;;27.87;42.06;100733.30;106215;1276;22516;-82
2022/06/27 08:31:14;;;;;;;3.30;2.20;;;;;;;27.94;41.22;100732.41;105932;1278;24271;-80
2022/06/27 08:33:43;;;;;;;2.50;2.00;;;;;;;28.04;41.01;100728.33;106104;1270;22576;-81
2022/06/27 08:36:11;;;;;;;3.90;2.20;;;;;;;28.16;40.65;100724.86;106353;1271;25264;-79
2022/06/27 08:38:48;;;;;;;3.20;2.40;;;;;;;28.28;40.24;100719.98;106377;1270;24249;-79
2022/06/27 08:41:15;;;;;;;2.40;2.10;;;;;;;28.43;40.10;100717.55;106417;1270;24312;-80
2022/06/27 08:43:43;;;;;;;2.90;2.30;;;;;;;28.58;39.77;100714.23;106445;1270;22660;-80
2022/06/27 08:46:15;;;;;;;4.00;2.20;;;;;;;28.70;39.36;100713.98;106686;1270;24417;-80
2022/06/27 08:48:45;;;;;;;3.40;2.20;;;;;;;28.82;38.89;100712.44;106672;1270;23450;-79
2022/06/27 08:51:12;;;;;;;4.50;1.80;;;;;;;28.95;38.27;100713.40;106338;1271;22706;-84
2022/06/27 08:53:39;;;;;;;5.20;2.30;;;;;;;29.00;37.66;100704.38;106486;1270;25268;-83
2022/06/27 08:56:12;;;;;;;3.00;2.00;;;;;;;29.10;38.06;100707.69;106389;1270;22549;-78
2022/06/27 08:58:40;;;;;;;2.90;1.80;;;;;;;29.25;37.71;100708.14;106560;1270;24233;-82
2022/06/27 09:01:09;;;;;;;3.90;2.00;;;;;;;29.31;37.68;100703.60;106391;1270;25185;-81
2022/06/27 09:03:36;;;;;;;5.10;2.20;;;;;;;29.38;37.77;100699.90;106368;1270;22541;-78
2022/06/27 09:06:05;;;;;;;4.20;2.00;;;;;;;29.42;37.12;100702.29;106261;1272;24381;-81
2022/06/27 09:08:52;;;;;;;2.70;2.20;;;;;;;29.45;37.29;100699.72;106377;1271;25315;-80
2022/06/27 09:11:28;;;;;;;2.00;1.80;;;;;;;29.58;37.23;100694.86;106221;1270;22741;-79
2022/06/27 09:13:54;;;;;;;2.60;1.90;;;;;;;29.71;36.75;100689.45;106081;1270;22543;-80
2022/06/27 09:16:21;;;;;;;4.90;2.00;;;;;;;29.79;36.40;100684.94;106103;1270;24269;-86
2022/06/27 09:18:47;;;;;;;8.40;2.20;;;;;;;29.89;36.14;100681.70;106201;1272;24323;-81
2022/06/27 09:21:14;;;;;;;3.90;2.10;;;;;;;29.98;36.05;100683.85;106216;1270;22628;-77
2022/06/27 09:23:49;;;;;;;2.50;2.00;;;;;;;30.03;36.23;100677.98;106218;1270;24276;-80
2022/06/27 09:26:27;;;;;;;2.40;2.20;;;;;;;30.22;36.46;100677.05;106213;1270;25482;-81
2022/06/27 09:29:03;;;;;;;2.90;1.70;;;;;;;30.35;35.02;100679.98;106097;1273;25991;-80
2022/06/27 09:31:35;;;;;;;2.00;1.80;;;;;;;30.34;34.47;100677.81;106179;1270;25367;-80
2022/06/27 09:34:23;;;;;;;2.00;1.80;;;;;;;30.50;35.20;100670.84;106181;1273;22981;-80
2022/06/27 09:36:52;;;;;;;3.00;1.70;;;;;;;30.44;34.57;100673.11;108127;1270;22590;-79
2022/06/27 09:39:29;;;;;;;2.10;1.80;;;;;;;30.50;34.13;100678.58;108320;1270;25525;-79
2022/06/27 09:42:05;;;;;;;2.20;1.80;;;;;;;30.58;33.45;100679.73;107014;1270;22556;-77
2022/06/27 09:44:35;;;;;;;2.70;1.90;;;;;;;30.64;33.32;100671.71;106280;1272;25583;-79
2022/06/27 09:47:04;;;;;;;2.30;1.70;;;;;;;30.79;33.26;100677.88;106605;1270;22574;-79
2022/06/27 09:49:33;;;;;;;3.60;2.50;;;;;;;30.90;32.76;100663.85;106263;1271;27111;-79
2022/06/27 09:52:20;;;;;;;2.50;2.10;;;;;;;31.00;32.60;100670.59;106315;1270;22739;-77
2022/06/27 09:54:50;;;;;;;6.30;2.20;;;;;;;31.09;32.81;100674.49;106447;1270;23067;-76
2022/06/27 09:57:18;;;;;;;7.20;1.90;;;;;;;31.19;33.23;100675.17;106167;1270;25264;-79
2022/06/27 09:59:47;;;;;;;3.70;1.70;;;;;;;31.18;33.16;100673.41;106441;1270;22836;-80
2022/06/27 10:02:16;;;;;;;4.60;2.20;;;;;;;31.07;33.64;100676.84;106187;1271;22559;-82
2022/06/27 10:04:44;;;;;;;4.40;2.30;;;;;;;30.98;33.70;100674.57;106295;1273;23921;-81
2022/06/27 10:07:12;;;;;;;3.90;2.20;;;;;;;30.87;33.64;100672.97;106140;1270;26746;-80
2022/06/27 10:09:42;;;;;;;6.60;2.30;;;;;;;30.76;33.99;100670.29;105996;1274;22552;-80
2022/06/27 10:12:23;;;;;;;4.50;2.10;;;;;;;30.72;34.11;100667.39;106042;1274;22618;-81
2022/06/27 10:15:12;;;;;;;3.10;2.40;;;;;;;30.73;34.68;100665.79;106079;1274;24120;-82
2022/06/27 10:17:41;;;;;;;4.10;1.90;;;;;;;30.83;34.59;100661.58;106804;1274;23154;-79
2022/06/27 10:20:15;;;;;;;4.60;2.00;;;;;;;30.86;34.35;100661.23;106839;1274;24565;-79
2022/06/27 10:22:43;;;;;;;4.40;2.20;;;;;;;30.85;34.20;100657.73;107023;1274;22564;-79
2022/06/27 10:25:27;;;;;;;1.90;1.60;;;;;;;30.79;33.62;100658.73;106730;1274;24357;-78
2022/06/27 10:28:09;;;;;;;5.20;1.80;;;;;;;30.78;33.55;100656.84;106773;1271;25502;-77
2022/06/27 10:30:47;;;;;;;3.20;1.80;;;;;;;30.79;33.39;100657.45;107589;1270;25275;-78
2022/06/27 10:33:23;;;;;;;6.00;2.20;;;;;;;30.86;32.93;100663.27;107232;1270;26503;-78
2022/06/27 10:36:13;;;;;;;6.60;2.00;;;;;;;30.88;32.56;100661.20;107723;1270;22480;-79
2022/06/27 10:38:39;;;;;;;3.10;2.10;;;;;;;30.99;32.78;100663.92;107825;1270;22552;-80
2022/06/27 10:41:10;;;;;;;3.90;2.10;;;;;;;31.15;32.84;100662.98;108237;1270;25300;-79
2022/06/27 10:43:41;;;;;;;6.30;2.10;;;;;;;31.31;32.70;100662.96;108347;1270;25422;-79
2022/06/27 10:46:10;;;;;;;4.30;2.00;;;;;;;31.54;32.51;100662.55;106770;1270;25393;-79
2022/06/27 10:48:42;;;;;;;4.60;2.10;;;;;;;31.71;32.38;100662.71;106399;1271;25756;-79
2022/06/27 10:51:22;;;;;;;1.90;1.80;;;;;;;31.90;32.29;100657.10;106241;1271;24272;-79
2022/06/27 10:53:50;;;;;;;4.70;2.00;;;;;;;32.21;32.13;100651.66;106418;1270;25658;-78
2022/06/27 10:56:31;;;;;;;3.40;2.30;;;;;;;32.41;32.03;100654.96;106189;1273;22533;-78
2022/06/27 10:59:00;;;;;;;9.00;2.00;;;;;;;32.58;31.80;100646.66;106273;1270;22547;-79
2022/06/27 11:01:27;;;;;;;2.00;1.90;;;;;;;32.67;31.63;100649.23;106579;1270;24727;-81
2022/06/27 11:03:54;;;;;;;3.90;2.10;;;;;;;32.86;31.61;100642.81;106277;1270;25381;-82
2022/06/27 11:06:21;;;;;;;1.70;1.60;;;;;;;32.92;31.39;100640.73;106234;1273;24024;-81
2022/06/27 11:08:50;;;;;;;2.00;1.80;;;;;;;33.00;31.30;100636.84;106623;1270;23968;-80
2022/06/27 11:11:30;;;;;;;2.30;2.10;;;;;;;33.06;31.08;100634.95;106786;1270;26633;-78
2022/06/27 11:13:59;;;;;;;3.70;2.20;;;;;;;33.12;31.13;100630.39;107230;1270;22554;-79
2022/06/27 11:16:33;;;;;;;6.40;2.10;;;;;;;33.05;30.67;100637.57;106960;1270;24246;-78
2022/06/27 11:21:52;;;;;;;4.70;2.70;;;;;;;32.75;30.93;100617.04;107271;1270;22575;-79
2022/06/27 11:24:18;;;;;;;3.10;2.10;;;;;;;32.75;31.22;100616.31;106896;1273;26124;-79
2022/06/27 11:26:47;;;;;;;4.00;2.10;;;;;;;32.83;31.36;100610.65;107024;1271;25384;-79
2022/06/27 11:32:13;;;;;;;2.70;1.90;;;;;;;33.11;30.91;100611.63;107263;1270;24265;-79
2022/06/27 11:34:43;;;;;;;3.20;2.50;;;;;;;33.22;30.58;100607.23;107621;1272;25382;-79
2022/06/27 11:37:12;;;;;;;5.80;2.10;;;;;;;33.31;30.16;100601.05;107781;1272;25544;-79